Time;durP1;ratioP1;P1;durP2;ratioP2;P2;SDS_P1;SDS_P2;PMS_P1;PMS_P2;Temp;Humidity;BMP_temperature;BMP_pressure;BME280_temperature;BME280_humidity;BME280_pressure;Samples;Min_cycle;Max_cycle;Signal;HPM_P1;HPM_P2
2022/08/20 00:01:03;;;;;;;;;;;;;;;20.14;90.94;99275.78;5074493;28;1023;-66
2022/08/20 00:03:31;;;;;;;;;;;;;;;20.18;91.32;99275.56;5074625;28;824;-66
2022/08/20 00:06:03;;;;;;;;;;;;;;;20.20;91.66;99275.88;5074533;28;882;-65
2022/08/20 00:08:30;;;;;;;;;;;;;;;20.21;92.02;99280.22;5074678;28;800;-66
2022/08/20 00:10:57;;;;;;;;;;;;;;;20.22;92.41;99281.00;5074481;28;1324;-66
2022/08/20 00:13:36;;;;;;;;;;;;;;;20.18;92.66;99281.97;5074505;28;839;-66
2022/08/20 00:16:03;;;;;;;;;;;;;;;20.14;93.00;99284.19;5074238;28;1876;-66
2022/08/20 00:18:30;;;;;;;;;;;;;;;20.10;93.08;99280.00;5074227;28;836;-66
2022/08/20 00:20:57;;;;;;;;;;;;;;;20.04;93.38;99282.72;5074257;28;931;-65
2022/08/20 00:23:23;;;;;;;;;;;;;;;19.99;93.56;99280.56;5074269;28;832;-66
2022/08/20 00:25:51;;;;;;;;;;;;;;;19.95;93.42;99277.97;5074156;28;831;-66
2022/08/20 00:28:17;;;;;;;;;;;;;;;19.91;93.52;99282.22;5074084;28;886;-66
2022/08/20 00:30:45;;;;;;;;;;;;;;;19.85;93.77;99273.69;5074339;28;851;-66
2022/08/20 00:33:13;;;;;;;;;;;;;;;19.82;93.97;99271.03;5074037;28;894;-66
2022/08/20 00:35:41;;;;;;;;;;;;;;;19.79;94.37;99273.56;5073986;28;879;-67
2022/08/20 00:38:09;;;;;;;;;;;;;;;19.77;94.50;99269.69;5073908;28;1894;-66
2022/08/20 00:40:41;;;;;;;;;;;;;;;19.72;94.84;99265.50;5073932;28;914;-66
2022/08/20 00:43:24;;;;;;;;;;;;;;;19.69;94.91;99265.66;5073593;28;824;-66
2022/08/20 00:45:54;;;;;;;;;;;;;;;19.62;94.94;99255.59;5055848;28;1283;-66
2022/08/20 00:48:24;;;;;;;;;;;;;;;19.61;95.24;99247.66;5073670;28;832;-66
2022/08/20 00:50:50;;;;;;;;;;;;;;;19.62;95.36;99246.41;5073751;28;800;-66
2022/08/20 00:53:19;;;;;;;;;;;;;;;19.59;95.41;99248.16;5073610;28;1306;-66
2022/08/20 00:55:45;;;;;;;;;;;;;;;19.59;95.57;99250.94;5074062;28;864;-67
2022/08/20 00:58:11;;;;;;;;;;;;;;;19.54;95.81;99243.97;5073832;28;1897;-66
2022/08/20 01:00:41;;;;;;;;;;;;;;;19.56;95.90;99244.25;5073632;28;851;-66
2022/08/20 01:03:10;;;;;;;;;;;;;;;19.49;95.78;99241.81;5074049;28;976;-66
2022/08/20 01:05:37;;;;;;;;;;;;;;;19.51;95.89;99241.34;5073449;28;867;-66
2022/08/20 01:08:03;;;;;;;;;;;;;;;19.48;95.86;99242.28;5073457;28;875;-66
2022/08/20 01:10:35;;;;;;;;;;;;;;;19.49;96.29;99241.06;5073231;28;1408;-66
2022/08/20 01:13:07;;;;;;;;;;;;;;;19.48;96.11;99245.88;5073340;28;851;-66
2022/08/20 01:15:33;;;;;;;;;;;;;;;19.45;96.15;99243.25;5073291;28;843;-66
2022/08/20 01:18:01;;;;;;;;;;;;;;;19.42;96.18;99241.41;5073018;28;1918;-66
2022/08/20 01:32:39;;;;;;;;;;;;;;;19.37;96.51;99234.41;5073260;28;611;-66
2022/08/20 01:35:05;;;;;;;;;;;;;;;19.41;96.53;99232.22;5073009;28;852;-66
2022/08/20 01:37:32;;;;;;;;;;;;;;;19.43;96.44;99226.13;5072686;28;1975;-66
2022/08/20 01:39:58;;;;;;;;;;;;;;;19.44;96.72;99227.69;5072818;28;839;-66
2022/08/20 01:42:32;;;;;;;;;;;;;;;19.44;96.87;99228.47;5072986;28;886;-66
2022/08/20 01:44:58;;;;;;;;;;;;;;;19.45;97.05;99224.41;5072685;28;879;-66
2022/08/20 01:47:26;;;;;;;;;;;;;;;19.49;97.06;99227.81;5072489;28;887;-66
2022/08/20 01:49:59;;;;;;;;;;;;;;;19.51;97.20;99219.69;5072573;28;867;-66
2022/08/20 01:52:45;;;;;;;;;;;;;;;19.55;97.00;99225.13;5072139;28;840;-66
2022/08/20 01:55:12;;;;;;;;;;;;;;;19.55;96.98;99223.09;5072297;28;871;-66
2022/08/20 01:57:38;;;;;;;;;;;;;;;19.54;97.03;99212.34;5072337;28;1878;-66
2022/08/20 02:00:07;;;;;;;;;;;;;;;19.53;97.33;99217.19;5072386;28;933;-65
2022/08/20 02:02:34;;;;;;;;;;;;;;;19.57;97.65;99214.97;5072549;28;933;-66
2022/08/20 02:05:01;;;;;;;;;;;;;;;19.58;97.68;99215.75;5072262;28;808;-66
2022/08/20 02:07:31;;;;;;;;;;;;;;;19.56;97.74;99221.06;5072207;28;815;-66
2022/08/20 02:09:58;;;;;;;;;;;;;;;19.52;97.97;99226.88;5072102;28;1310;-66
2022/08/20 02:12:25;;;;;;;;;;;;;;;19.50;98.19;99215.34;5072336;28;840;-66
2022/08/20 02:14:53;;;;;;;;;;;;;;;19.50;98.28;99208.94;5072868;28;832;-66
2022/08/20 02:17:21;;;;;;;;;;;;;;;19.51;98.19;99218.94;5072255;28;1906;-66
2022/08/20 02:19:57;;;;;;;;;;;;;;;19.51;98.10;99213.31;5072020;28;882;-66
2022/08/20 02:22:28;;;;;;;;;;;;;;;19.51;98.12;99219.69;5071925;28;859;-66
2022/08/20 02:24:55;;;;;;;;;;;;;;;19.53;97.86;99217.19;5071896;28;1049;-67
2022/08/20 02:27:22;;;;;;;;;;;;;;;19.53;97.75;99208.00;5071909;28;832;-66
2022/08/20 02:29:50;;;;;;;;;;;;;;;19.49;97.67;99207.41;5071771;28;824;-65
2022/08/20 02:32:17;;;;;;;;;;;;;;;19.41;97.94;99209.03;5071808;28;863;-66
2022/08/20 02:34:43;;;;;;;;;;;;;;;19.39;98.26;99206.69;5071728;28;828;-66
2022/08/20 02:37:13;;;;;;;;;;;;;;;19.35;98.36;99209.69;5071627;28;1889;-66
2022/08/20 02:39:40;;;;;;;;;;;;;;;19.35;98.57;99209.69;5071955;28;946;-66
2022/08/20 02:42:08;;;;;;;;;;;;;;;19.37;98.60;99210.00;5071674;28;816;-66
2022/08/20 02:44:35;;;;;;;;;;;;;;;19.40;98.70;99204.69;5071590;28;867;-66
2022/08/20 02:47:01;;;;;;;;;;;;;;;19.38;98.73;99205.16;5071616;28;913;-66
2022/08/20 02:49:28;;;;;;;;;;;;;;;19.32;98.71;99205.03;5071619;28;891;-66
2022/08/20 02:51:55;;;;;;;;;;;;;;;19.32;98.85;99204.25;5071829;28;843;-66
2022/08/20 02:54:21;;;;;;;;;;;;;;;19.33;98.60;99205.81;5071601;28;854;-66
2022/08/20 02:56:49;;;;;;;;;;;;;;;19.36;98.73;99202.81;5071428;28;1940;-66
2022/08/20 02:59:17;;;;;;;;;;;;;;;19.37;98.64;99200.78;5071515;28;906;-66
2022/08/20 03:01:44;;;;;;;;;;;;;;;19.36;98.55;99205.63;5053542;28;1291;-66
2022/08/20 03:04:10;;;;;;;;;;;;;;;19.37;98.58;99209.19;5053176;28;1260;-66
2022/08/20 03:06:37;;;;;;;;;;;;;;;19.40;98.64;99207.50;5071397;28;812;-66
2022/08/20 03:09:06;;;;;;;;;;;;;;;19.39;98.47;99201.09;5071062;28;1452;-66
2022/08/20 03:11:33;;;;;;;;;;;;;;;19.36;98.62;99199.25;5071451;28;827;-66
2022/08/20 03:14:00;;;;;;;;;;;;;;;19.36;98.69;99196.47;5071717;28;780;-66
2022/08/20 03:16:27;;;;;;;;;;;;;;;19.30;98.65;99199.13;5071247;28;1977;-66
2022/08/20 03:18:54;;;;;;;;;;;;;;;19.27;98.93;99199.34;5071331;28;835;-66
2022/08/20 03:21:20;;;;;;;;;;;;;;;19.25;99.01;99204.63;5071306;28;851;-65
2022/08/20 03:23:47;;;;;;;;;;;;;;;19.24;99.18;99205.88;5071234;28;807;-65
2022/08/20 03:26:13;;;;;;;;;;;;;;;19.23;99.41;99196.69;5071340;28;957;-65
2022/08/20 03:28:40;;;;;;;;;;;;;;;19.27;99.47;99204.94;5071368;28;821;-65
2022/08/20 03:31:06;;;;;;;;;;;;;;;19.28;99.53;99204.44;5071228;28;840;-65
2022/08/20 03:33:34;;;;;;;;;;;;;;;19.32;99.60;99207.84;5071398;28;874;-66
2022/08/20 03:36:01;;;;;;;;;;;;;;;19.35;99.54;99209.69;5071124;28;815;-65
2022/08/20 03:38:27;;;;;;;;;;;;;;;19.37;99.36;99210.00;5071044;28;1948;-66
2022/08/20 03:40:54;;;;;;;;;;;;;;;19.38;99.45;99207.97;5071302;28;883;-66
2022/08/20 03:43:21;;;;;;;;;;;;;;;19.41;99.40;99209.78;5071011;28;859;-66
2022/08/20 03:45:47;;;;;;;;;;;;;;;19.44;99.28;99213.66;5071310;28;867;-65
2022/08/20 03:48:15;;;;;;;;;;;;;;;19.42;99.26;99214.16;5070948;28;875;-65
2022/08/20 03:50:43;;;;;;;;;;;;;;;19.41;99.46;99209.03;5070978;28;875;-66
2022/08/20 03:53:11;;;;;;;;;;;;;;;19.42;99.55;99210.59;5070929;28;875;-65
2022/08/20 03:55:38;;;;;;;;;;;;;;;19.44;99.32;99202.47;5070974;28;804;-65
2022/08/20 03:58:06;;;;;;;;;;;;;;;19.46;99.27;99200.75;5070840;28;1886;-65
2022/08/20 04:00:34;;;;;;;;;;;;;;;19.48;99.03;99201.03;5071400;28;788;-65
2022/08/20 04:03:02;;;;;;;;;;;;;;;19.52;99.13;99212.06;5071460;28;960;-65
2022/08/20 04:05:30;;;;;;;;;;;;;;;19.58;98.85;99224.16;5071114;28;824;-66
2022/08/20 04:07:58;;;;;;;;;;;;;;;19.63;98.70;99217.09;5070829;28;840;-65
2022/08/20 04:10:24;;;;;;;;;;;;;;;19.65;98.49;99218.22;5070681;28;1462;-65
2022/08/20 04:12:51;;;;;;;;;;;;;;;19.73;98.26;99230.59;5070705;28;828;-65
2022/08/20 04:15:18;;;;;;;;;;;;;;;19.82;98.02;99235.34;5070702;28;893;-65
2022/08/20 04:17:46;;;;;;;;;;;;;;;19.91;97.54;99228.94;5073494;28;1922;-65
2022/08/20 04:20:14;;;;;;;;;;;;;;;19.99;97.29;99230.06;5074465;28;823;-65
2022/08/20 04:22:41;;;;;;;;;;;;;;;20.08;97.07;99235.63;5074261;28;887;-65
2022/08/20 04:25:07;;;;;;;;;;;;;;;20.17;96.70;99232.72;5074258;28;848;-66
2022/08/20 04:27:36;;;;;;;;;;;;;;;20.25;96.50;99235.94;5074227;28;899;-65
2022/08/20 04:30:03;;;;;;;;;;;;;;;20.37;96.12;99234.06;5074093;28;835;-65
2022/08/20 04:32:29;;;;;;;;;;;;;;;20.46;95.92;99227.59;5074126;28;819;-65
2022/08/20 04:34:57;;;;;;;;;;;;;;;20.59;95.67;99237.31;5074088;28;828;-65
2022/08/20 04:37:24;;;;;;;;;;;;;;;20.79;94.96;99227.41;5074216;28;1890;-65
2022/08/20 04:42:36;;;;;;;;;;;;;;;21.24;93.32;99232.91;5073853;28;649;-65
2022/08/20 04:45:05;;;;;;;;;;;;;;;21.43;92.55;99237.03;5073835;28;816;-65
2022/08/20 04:47:31;;;;;;;;;;;;;;;21.59;91.86;99236.47;5073855;28;875;-65
2022/08/20 04:50:01;;;;;;;;;;;;;;;21.78;90.76;99236.94;5055900;28;892;-65
2022/08/20 04:52:31;;;;;;;;;;;;;;;21.97;89.92;99236.63;5073742;28;839;-65
2022/08/20 04:54:58;;;;;;;;;;;;;;;22.13;88.90;99227.59;5073696;28;899;-65
2022/08/20 04:57:25;;;;;;;;;;;;;;;22.29;88.30;99217.03;5073632;28;1913;-65
2022/08/20 04:59:52;;;;;;;;;;;;;;;22.45;87.51;99222.03;5073578;28;883;-65
2022/08/20 05:02:20;;;;;;;;;;;;;;;22.58;86.75;99221.63;5073768;28;1024;-65
2022/08/20 05:04:47;;;;;;;;;;;;;;;22.68;85.79;99228.63;5073759;28;868;-66
2022/08/20 05:07:14;;;;;;;;;;;;;;;22.78;84.98;99232.03;5073478;28;906;-66
2022/08/20 05:09:41;;;;;;;;;;;;;;;22.93;83.93;99221.38;5073072;28;1145;-65
2022/08/20 05:12:08;;;;;;;;;;;;;;;23.16;83.41;99230.78;5073248;28;871;-65
2022/08/20 05:14:35;;;;;;;;;;;;;;;23.34;82.52;99226.00;5055300;28;1306;-65
2022/08/20 05:17:03;;;;;;;;;;;;;;;23.46;81.83;99226.81;5073215;28;1941;-65
2022/08/20 05:19:32;;;;;;;;;;;;;;;23.57;81.30;99238.16;5073178;28;846;-65
2022/08/20 05:21:59;;;;;;;;;;;;;;;23.68;80.41;99229.72;5073141;28;867;-65
2022/08/20 05:24:25;;;;;;;;;;;;;;;23.84;80.10;99231.88;5055135;28;1305;-65
2022/08/20 05:26:54;;;;;;;;;;;;;;;24.03;79.36;99231.41;5073009;28;910;-65
2022/08/20 05:29:22;;;;;;;;;;;;;;;24.16;79.05;99237.34;5072949;28;879;-65
2022/08/20 05:31:49;;;;;;;;;;;;;;;24.33;78.18;99236.59;5073197;28;824;-65
2022/08/20 05:34:15;;;;;;;;;;;;;;;24.49;77.01;99232.28;5072873;28;844;-65
2022/08/20 05:36:44;;;;;;;;;;;;;;;24.65;76.56;99237.16;5072744;28;1890;-65
2022/08/20 05:39:12;;;;;;;;;;;;;;;24.92;75.23;99229.97;5072862;28;851;-65
2022/08/20 05:41:39;;;;;;;;;;;;;;;25.15;73.74;99238.38;5054655;28;1278;-65
2022/08/20 05:44:09;;;;;;;;;;;;;;;25.42;72.66;99234.72;5072876;28;875;-65
2022/08/20 05:46:39;;;;;;;;;;;;;;;25.70;71.05;99239.50;5072994;28;927;-65
2022/08/20 05:49:07;;;;;;;;;;;;;;;25.91;69.92;99239.97;5072574;28;926;-65
2022/08/20 05:51:35;;;;;;;;;;;;;;;26.27;68.25;99237.19;5072573;28;792;-65
2022/08/20 05:54:02;;;;;;;;;;;;;;;26.73;67.28;99229.13;5072578;28;903;-65
2022/08/20 05:56:30;;;;;;;;;;;;;;;27.27;65.01;99225.53;5072346;28;1885;-65
2022/08/20 05:58:58;;;;;;;;;;;;;;;27.80;62.85;99227.97;5072420;28;876;-65
2022/08/20 06:01:24;;;;;;;;;;;;;;;28.18;60.98;99225.91;5072420;28;944;-65
2022/08/20 06:06:36;;;;;;;;;;;;;;;29.36;57.27;99219.53;5072335;28;635;-65
2022/08/20 06:09:03;;;;;;;;;;;;;;;29.90;54.80;99229.56;5071872;28;1424;-66
2022/08/20 06:11:29;;;;;;;;;;;;;;;30.43;52.35;99232.25;5072092;28;859;-65
2022/08/20 06:13:56;;;;;;;;;;;;;;;30.57;51.72;99229.34;5072261;28;883;-65
2022/08/20 06:16:23;;;;;;;;;;;;;;;30.24;51.56;99206.78;5072460;28;1918;-65
2022/08/20 06:18:49;;;;;;;;;;;;;;;29.93;52.39;99232.06;5072193;28;824;-65
2022/08/20 06:21:16;;;;;;;;;;;;;;;29.66;52.99;99234.19;5072354;28;828;-65
2022/08/20 06:23:42;;;;;;;;;;;;;;;29.75;52.50;99243.63;5072342;28;820;-65
2022/08/20 06:26:09;;;;;;;;;;;;;;;30.19;51.33;99238.25;5072591;28;764;-66
2022/08/20 06:28:36;;;;;;;;;;;;;;;30.60;49.35;99239.63;5072358;28;789;-66
2022/08/20 06:31:03;;;;;;;;;;;;;;;31.01;48.11;99246.66;5071928;28;820;-65
2022/08/20 06:33:30;;;;;;;;;;;;;;;31.44;47.38;99248.13;5072157;28;788;-65
2022/08/20 06:35:56;;;;;;;;;;;;;;;31.78;45.39;99239.34;5071741;28;1332;-65
2022/08/20 06:38:24;;;;;;;;;;;;;;;32.06;44.43;99241.38;5053713;28;1882;-65
2022/08/20 06:40:50;;;;;;;;;;;;;;;32.58;43.79;99244.16;5071499;28;911;-65
2022/08/20 06:43:17;;;;;;;;;;;;;;;33.34;41.77;99234.03;5071706;28;984;-65
2022/08/20 06:45:44;;;;;;;;;;;;;;;33.59;41.09;99239.88;5071681;28;808;-66
2022/08/20 06:48:13;;;;;;;;;;;;;;;33.72;40.86;99242.53;5071569;28;844;-66
2022/08/20 06:50:41;;;;;;;;;;;;;;;34.07;39.09;99244.88;5071930;28;844;-66
2022/08/20 06:53:09;;;;;;;;;;;;;;;34.00;40.16;99242.81;5071764;28;876;-66
2022/08/20 06:55:36;;;;;;;;;;;;;;;33.89;39.85;99241.13;5071617;28;884;-66
2022/08/20 06:58:04;;;;;;;;;;;;;;;34.01;40.08;99247.19;5071373;28;1906;-65
2022/08/20 07:00:32;;;;;;;;;;;;;;;34.11;39.96;99242.34;5071602;28;824;-66
2022/08/20 07:03:00;;;;;;;;;;;;;;;34.17;38.72;99245.78;5071824;28;990;-66
2022/08/20 07:05:31;;;;;;;;;;;;;;;34.22;38.58;99238.31;5071711;28;836;-66
2022/08/20 07:07:59;;;;;;;;;;;;;;;34.44;38.30;99239.50;5071430;28;836;-65
2022/08/20 07:10:27;;;;;;;;;;;;;;;35.06;37.14;99226.22;5071103;28;1449;-65
2022/08/20 07:12:53;;;;;;;;;;;;;;;35.22;36.15;99234.69;5071306;28;882;-65
2022/08/20 07:15:21;;;;;;;;;;;;;;;35.12;36.98;99231.69;5071434;28;848;-65
2022/08/20 07:17:55;;;;;;;;;;;;;;;35.59;35.90;99244.25;5071209;28;1919;-65
2022/08/20 07:20:21;;;;;;;;;;;;;;;36.28;34.00;99226.16;5071243;28;843;-65
2022/08/20 07:22:48;;;;;;;;;;;;;;;36.85;34.20;99229.13;5071288;28;824;-65
2022/08/20 07:25:16;;;;;;;;;;;;;;;37.30;32.78;99223.91;5071245;28;836;-66
2022/08/20 07:27:44;;;;;;;;;;;;;;;37.41;32.17;99220.44;5071195;28;879;-66
2022/08/20 07:32:57;;;;;;;;;;;;;;;38.05;31.79;99223.00;5071541;28;682;-65
2022/08/20 07:35:24;;;;;;;;;;;;;;;38.34;31.82;99225.78;5071093;28;867;-65
2022/08/20 07:37:53;;;;;;;;;;;;;;;38.43;30.59;99220.59;5071097;28;1961;-66
2022/08/20 07:52:41;;;;;;;;;;;;;;;38.18;30.42;99215.97;5012058;28;1032;-66
2022/08/20 07:55:10;;;;;;;;;;;;;;;38.56;29.77;99214.34;5013088;28;825;-66
2022/08/20 07:57:37;;;;;;;;;;;;;;;38.46;29.84;99220.13;5012907;28;1951;-66
2022/08/20 08:00:07;;;;;;;;;;;;;;;38.24;30.43;99212.75;5012957;28;820;-66
2022/08/20 08:02:35;;;;;;;;;;;;;;;38.58;30.25;99209.47;5012847;28;1003;-66
2022/08/20 08:05:02;;;;;;;;;;;;;;;38.65;29.45;99207.00;5029242;28;1252;-66
2022/08/20 08:07:29;;;;;;;;;;;;;;;39.25;29.15;99195.25;5013119;28;820;-66
2022/08/20 08:09:56;;;;;;;;;;;;;;;39.46;28.29;99205.31;5012485;28;1266;-66
2022/08/20 08:24:35;;;;;;;;;;;;;;;39.60;27.05;99188.88;5012690;28;632;-66
2022/08/20 08:27:01;;;;;;;;;;;;;;;39.50;27.51;99180.31;5012482;28;866;-65
2022/08/20 08:29:28;;;;;;;;;;;;;;;39.11;27.73;99174.81;5044882;28;1049;-65
2022/08/20 08:31:55;;;;;;;;;;;;;;;38.81;28.37;99173.47;5054188;28;828;-65
2022/08/20 08:34:23;;;;;;;;;;;;;;;38.44;28.74;99179.56;5054159;28;831;-65
2022/08/20 08:36:51;;;;;;;;;;;;;;;37.85;29.41;99184.00;5054082;28;1893;-65
2022/08/20 08:39:18;;;;;;;;;;;;;;;36.76;30.93;99179.53;5053850;28;848;-65
2022/08/20 08:41:48;;;;;;;;;;;;;;;37.32;30.27;99172.19;5054190;28;797;-66
2022/08/20 08:56:29;;;;;;;;;;;;;;;37.37;28.85;99150.97;5053937;28;1917;-65
2022/08/20 08:58:59;;;;;;;;;;;;;;;36.90;30.34;99158.97;5053631;28;894;-66
2022/08/20 09:01:27;;;;;;;;;;;;;;;36.87;29.86;99157.28;5053668;28;1032;-66
2022/08/20 09:03:54;;;;;;;;;;;;;;;37.52;29.59;99150.66;5053128;28;875;-65
2022/08/20 09:06:23;;;;;;;;;;;;;;;37.95;28.99;99142.22;5053522;28;808;-65
2022/08/20 09:12:03;;;;;;;;;;;;;;;37.53;29.07;99151.41;5071551;28;1434;-65
2022/08/20 09:14:30;;;;;;;;;;;;;;;37.67;29.20;99140.94;5073897;28;789;-65
2022/08/20 09:16:56;;;;;;;;;;;;;;;36.72;30.23;99146.81;5073220;28;1973;-64
2022/08/20 09:19:23;;;;;;;;;;;;;;;36.68;30.34;99140.75;5055571;28;1298;-64
2022/08/20 09:21:51;;;;;;;;;;;;;;;37.24;29.60;99134.91;5073187;28;812;-66
2022/08/20 09:24:17;;;;;;;;;;;;;;;37.52;29.07;99133.38;5073661;28;937;-66
2022/08/20 09:26:44;;;;;;;;;;;;;;;37.68;28.85;99127.28;5073338;28;812;-66
2022/08/20 09:29:11;;;;;;;;;;;;;;;37.80;28.25;99131.81;5073013;28;800;-66
2022/08/20 09:31:37;;;;;;;;;;;;;;;36.61;29.07;99128.00;5072983;28;828;-64
2022/08/20 10:02:30;;;;;;;;;;;;;;;37.51;29.22;99102.25;5628501;22;1677;-59
2022/08/20 10:05:00;;;;;;;;;;;;;;;37.32;29.71;99106.72;5093192;28;803;-59
2022/08/20 10:07:27;;;;;;;;;;;;;;;35.93;32.03;99094.00;5092552;28;803;-59
2022/08/20 10:09:53;;;;;;;;;;;;;;;34.94;33.22;99107.47;5092854;28;862;-60
2022/08/20 10:12:20;;;;;;;;;;;;;;;35.13;33.50;99106.88;5092503;28;871;-60
2022/08/20 10:14:47;;;;;;;;;;;;;;;35.94;33.71;99101.25;5091908;28;863;-59
2022/08/20 10:17:13;;;;;;;;;;;;;;;36.76;31.37;99101.81;5092432;28;1913;-59
2022/08/20 10:19:54;;;;;;;;;;;;;;;37.13;30.65;99107.47;5092639;28;859;-59
2022/08/20 10:22:21;;;;;;;;;;;;;;;37.19;30.19;99096.41;5092302;28;808;-59
2022/08/20 10:24:48;;;;;;;;;;;;;;;37.72;30.07;99104.53;5074004;28;1294;-59
2022/08/20 10:27:15;;;;;;;;;;;;;;;37.68;29.58;99101.34;5092254;28;878;-59
2022/08/20 10:29:41;;;;;;;;;;;;;;;37.75;28.97;99091.78;5092269;28;878;-59
2022/08/20 10:32:10;;;;;;;;;;;;;;;37.46;29.29;99091.81;5073866;28;1254;-59
2022/08/20 10:34:38;;;;;;;;;;;;;;;37.51;29.57;99096.50;5092074;28;882;-59
2022/08/20 10:37:04;;;;;;;;;;;;;;;37.37;30.26;99084.72;5073797;28;1960;-59
2022/08/20 10:39:31;;;;;;;;;;;;;;;36.75;32.11;99085.16;5091950;28;894;-59
2022/08/20 10:41:58;;;;;;;;;;;;;;;36.66;31.49;99080.13;5091996;28;807;-58
2022/08/20 10:44:25;;;;;;;;;;;;;;;36.76;31.98;99081.66;5073730;28;1306;-58
2022/08/20 10:46:51;;;;;;;;;;;;;;;36.48;31.05;99085.25;5091904;28;863;-59
2022/08/20 10:49:18;;;;;;;;;;;;;;;36.54;31.42;99077.09;5091870;28;795;-59
2022/08/20 10:51:45;;;;;;;;;;;;;;;36.91;30.64;99071.22;5091838;28;843;-59
2022/08/20 10:54:11;;;;;;;;;;;;;;;37.39;29.57;99076.22;5091762;28;811;-59
2022/08/20 10:56:38;;;;;;;;;;;;;;;37.51;30.33;99077.09;5091683;28;1916;-59
2022/08/20 10:59:04;;;;;;;;;;;;;;;37.95;30.00;99070.13;5091940;28;835;-59
2022/08/20 11:01:30;;;;;;;;;;;;;;;38.13;29.64;99064.16;5091622;28;1026;-59
2022/08/20 11:03:56;;;;;;;;;;;;;;;38.20;29.52;99060.34;5091499;28;1304;-59
2022/08/20 11:06:22;;;;;;;;;;;;;;;38.30;28.55;99066.03;5091579;28;890;-59
2022/08/20 11:08:49;;;;;;;;;;;;;;;38.37;28.71;99062.97;5091606;28;851;-59
2022/08/20 11:11:16;;;;;;;;;;;;;;;38.91;28.10;99049.97;5091577;28;820;-59
2022/08/20 11:13:43;;;;;;;;;;;;;;;38.96;27.58;99059.69;5091827;28;827;-59
2022/08/20 11:16:10;;;;;;;;;;;;;;;38.59;28.32;99048.56;5091558;28;894;-59
2022/08/20 11:18:37;;;;;;;;;;;;;;;37.74;29.03;99058.53;5091421;28;1909;-60
2022/08/20 11:21:04;;;;;;;;;;;;;;;36.93;30.35;99056.97;5091464;28;969;-60
2022/08/20 11:23:30;;;;;;;;;;;;;;;37.13;30.80;99054.88;5091383;28;835;-60
2022/08/20 11:25:57;;;;;;;;;;;;;;;37.65;29.97;99053.56;5093273;28;836;-60
2022/08/20 11:28:24;;;;;;;;;;;;;;;38.12;29.26;99051.13;5077448;28;1384;-60
2022/08/20 11:30:50;;;;;;;;;;;;;;;38.22;28.77;99046.06;5095454;28;823;-60
2022/08/20 11:33:29;;;;;;;;;;;;;;;38.36;28.47;99043.38;5095552;28;859;-59
2022/08/20 11:35:56;;;;;;;;;;;;;;;38.34;28.58;99046.88;5077291;28;1211;-60
2022/08/20 11:38:22;;;;;;;;;;;;;;;38.58;28.64;99044.94;5095311;28;1886;-60
2022/08/20 11:41:02;;;;;;;;;;;;;;;38.63;28.51;99048.09;5095413;28;867;-60
2022/08/20 11:43:28;;;;;;;;;;;;;;;38.58;28.87;99044.94;5095402;28;906;-60
2022/08/20 11:45:56;;;;;;;;;;;;;;;38.86;29.32;99041.66;5095273;28;902;-60
2022/08/20 11:48:22;;;;;;;;;;;;;;;39.27;28.28;99050.13;5095299;28;1021;-60
2022/08/20 11:50:49;;;;;;;;;;;;;;;39.61;27.96;99055.25;5095302;28;954;-60
2022/08/20 11:53:15;;;;;;;;;;;;;;;40.21;27.40;99056.03;5095128;28;863;-60
2022/08/20 11:55:42;;;;;;;;;;;;;;;40.11;26.73;99055.41;5095414;28;855;-60
2022/08/20 11:58:11;;;;;;;;;;;;;;;39.92;27.11;99050.66;5095063;28;1947;-60
2022/08/20 12:00:38;;;;;;;;;;;;;;;39.60;27.87;99053.75;5094879;28;897;-60
2022/08/20 12:03:06;;;;;;;;;;;;;;;40.08;27.57;99048.00;5094059;28;1245;-61
2022/08/20 12:05:32;;;;;;;;;;;;;;;40.09;27.49;99050.25;5093816;28;830;-61
2022/08/20 12:08:04;;;;;;;;;;;;;;;39.67;27.98;99049.13;5093579;28;865;-60
2022/08/20 12:10:31;;;;;;;;;;;;;;;39.06;28.79;99045.16;5093613;28;823;-61
2022/08/20 12:12:57;;;;;;;;;;;;;;;39.00;29.12;99046.25;5093765;28;874;-61
2022/08/20 12:18:35;;;;;;;;;;;;;;;38.85;29.44;99035.13;5093486;28;1910;-60
2022/08/20 12:21:01;;;;;;;;;;;;;;;38.59;29.32;99031.25;5093547;28;819;-61
2022/08/20 12:23:56;;;;;;;;;;;;;;;38.30;29.67;99029.31;5093545;28;807;-61
2022/08/20 12:38:33;;;;;;;;;;;;;;;38.64;29.37;99017.84;5092617;28;1898;-60
2022/08/20 12:41:01;;;;;;;;;;;;;;;38.64;29.71;99026.50;5093049;28;838;-61
2022/08/20 12:43:28;;;;;;;;;;;;;;;38.34;29.75;99020.91;5093096;28;827;-60
2022/08/20 12:45:54;;;;;;;;;;;;;;;38.31;29.79;99024.28;5093009;28;804;-61
2022/08/20 12:48:20;;;;;;;;;;;;;;;38.57;29.41;99013.78;5092933;28;807;-60
2022/08/20 12:50:48;;;;;;;;;;;;;;;38.62;29.33;99011.94;5092977;28;820;-60
2022/08/20 12:53:16;;;;;;;;;;;;;;;38.81;29.06;99014.66;5092845;28;866;-61
2022/08/20 12:55:43;;;;;;;;;;;;;;;38.90;29.11;99010.94;5092843;28;799;-61
2022/08/20 12:58:09;;;;;;;;;;;;;;;38.89;29.14;99018.06;5092730;28;1977;-60
2022/08/20 13:00:43;;;;;;;;;;;;;;;38.72;29.02;99010.47;5092757;28;831;-62
2022/08/20 13:04:40;;;;;;;;;;;;;;;38.31;29.48;99007.72;5109560;27;1708;-61
2022/08/20 13:07:09;;;;;;;;;;;;;;;38.16;30.01;99014.66;5109343;28;889;-61
2022/08/20 13:21:47;;;;;;;;;;;;;;;38.05;30.04;98998.03;5109495;28;667;-61
2022/08/20 13:24:14;;;;;;;;;;;;;;;38.22;30.29;98999.91;5109139;28;1905;-61
2022/08/20 13:26:41;;;;;;;;;;;;;;;38.10;30.38;99004.81;5109044;28;1186;-61
2022/08/20 13:29:46;;;;;;;;;;;;;;;38.01;29.97;99003.47;5108820;28;1044;-61
2022/08/20 13:32:13;;;;;;;;;;;;;;;37.80;29.94;98999.19;5109204;28;806;-60
2022/08/20 13:34:40;;;;;;;;;;;;;;;37.47;30.39;99004.00;5108841;28;869;-61
2022/08/20 13:37:16;;;;;;;;;;;;;;;37.84;30.63;98995.84;5108895;28;798;-61
2022/08/20 13:39:43;;;;;;;;;;;;;;;37.74;29.87;98998.75;5108778;28;861;-60
2022/08/20 13:42:10;;;;;;;;;;;;;;;37.19;30.89;98997.69;5108818;28;806;-62
2022/08/20 13:44:38;;;;;;;;;;;;;;;37.32;31.49;98996.44;5108585;28;1893;-62
2022/08/20 13:50:14;;;;;;;;;;;;;;;37.03;31.00;98987.88;5108767;28;624;-62
2022/08/20 13:52:42;;;;;;;;;;;;;;;36.88;30.88;98983.19;5108831;28;942;-61
2022/08/20 13:55:10;;;;;;;;;;;;;;;36.73;31.49;98982.13;5108599;28;892;-62
2022/08/20 13:57:37;;;;;;;;;;;;;;;36.51;31.77;98983.31;5108336;28;1167;-61
2022/08/20 14:00:06;;;;;;;;;;;;;;;36.20;31.91;98975.28;5108435;28;849;-62
2022/08/20 14:02:32;;;;;;;;;;;;;;;36.03;31.99;98975.38;5107864;28;1957;-61
2022/08/20 14:08:10;;;;;;;;;;;;;;;35.75;33.07;98961.06;5108229;28;1110;-61
2022/08/20 14:10:36;;;;;;;;;;;;;;;35.71;32.69;98966.50;5108252;28;778;-62
2022/08/20 14:13:02;;;;;;;;;;;;;;;35.50;33.31;98967.00;5108262;28;789;-62
2022/08/20 14:15:29;;;;;;;;;;;;;;;35.17;33.79;98973.03;5097569;28;813;-61
2022/08/20 14:17:56;;;;;;;;;;;;;;;34.93;33.79;98973.91;5093261;28;1151;-61
2022/08/20 14:20:24;;;;;;;;;;;;;;;34.52;34.57;98961.94;5094447;28;838;-62
2022/08/20 14:22:52;;;;;;;;;;;;;;;34.31;34.91;98963.16;5094337;28;2040;-62
2022/08/20 14:25:19;;;;;;;;;;;;;;;34.22;34.53;98960.19;5094396;28;797;-61
2022/08/20 14:27:46;;;;;;;;;;;;;;;34.09;35.18;98964.84;5092978;28;1234;-61
2022/08/20 14:30:14;;;;;;;;;;;;;;;34.24;34.66;98963.97;5094226;28;822;-61
2022/08/20 14:32:41;;;;;;;;;;;;;;;34.05;35.07;98969.47;5094228;28;822;-61
2022/08/20 14:35:08;;;;;;;;;;;;;;;33.84;35.24;98975.59;5094457;28;853;-61
2022/08/20 14:37:36;;;;;;;;;;;;;;;33.63;35.51;98964.50;5092866;28;1288;-61
2022/08/20 14:40:06;;;;;;;;;;;;;;;33.49;35.11;98969.72;5094817;28;779;-62
2022/08/20 14:42:34;;;;;;;;;;;;;;;33.44;35.47;98968.63;5092706;28;1947;-61
2022/08/20 14:45:03;;;;;;;;;;;;;;;33.43;35.57;98964.22;5126806;27;1297;-62
2022/08/20 14:47:32;;;;;;;;;;;;;;;33.53;35.93;98967.22;5093918;28;829;-61
2022/08/20 15:02:12;;;;;;;;;;;;;;;33.32;35.05;98947.50;5093911;28;941;-63
2022/08/20 15:04:38;;;;;;;;;;;;;;;33.30;35.73;98945.22;5093550;28;1965;-62
2022/08/20 15:07:08;;;;;;;;;;;;;;;33.53;35.35;98947.91;5093593;28;821;-63
2022/08/20 15:09:35;;;;;;;;;;;;;;;33.55;35.47;98941.63;5093558;28;810;-63
2022/08/20 15:12:02;;;;;;;;;;;;;;;33.25;35.44;98945.47;5093486;28;862;-62
2022/08/20 15:14:27;;;;;;;;;;;;;;;32.94;36.15;98940.63;5092086;28;861;-62
2022/08/20 15:16:53;;;;;;;;;;;;;;;32.69;36.86;98946.28;5093424;28;864;-61
2022/08/20 15:43:43;;;;;;;;;;;;;;;30.16;42.45;98955.16;5093139;28;1885;-63
2022/08/20 15:46:09;;;;;;;;;;;;;;;29.99;42.73;98955.63;5091523;28;1297;-63
2022/08/20 15:48:41;;;;;;;;;;;;;;;29.81;43.33;98968.78;5092779;28;825;-63